createdAt,value
2018-07-27T00:00:46.671Z,13.48
2018-07-27T00:03:14.152Z,10.25
2018-07-27T00:05:41.629Z,15.90
2018-07-27T00:08:09.065Z,13.68
2018-07-27T00:10:36.510Z,11.27
2018-07-27T00:13:03.992Z,10.50
2018-07-27T00:15:31.435Z,7.75
2018-07-27T00:17:58.871Z,8.52
2018-07-27T00:20:26.436Z,9.80
2018-07-27T00:22:53.935Z,12.15
2018-07-27T00:25:21.395Z,9.27
2018-07-27T00:27:48.925Z,7.03
2018-07-27T00:30:16.382Z,10.10
2018-07-27T00:32:43.814Z,6.85
2018-07-27T00:35:11.303Z,7.45
2018-07-27T00:37:38.778Z,18.65
2018-07-27T00:40:06.209Z,8.20
2018-07-27T00:42:33.648Z,9.93
2018-07-27T00:45:01.132Z,7.37
2018-07-27T00:47:28.672Z,17.98
2018-07-27T00:49:56.160Z,9.93
2018-07-27T00:52:23.676Z,8.32
2018-07-27T00:54:51.174Z,11.27
2018-07-27T00:57:18.581Z,8.13
2018-07-27T00:59:46.023Z,7.62
2018-07-27T01:02:13.509Z,15.48
2018-07-27T01:04:40.978Z,24.20
2018-07-27T01:07:08.434Z,9.75
2018-07-27T01:09:35.976Z,10.25
2018-07-27T01:12:03.452Z,7.15
2018-07-27T01:14:30.916Z,7.18
2018-07-27T01:16:58.428Z,17.85
2018-07-27T01:19:25.905Z,8.40
2018-07-27T01:21:53.355Z,8.57
2018-07-27T01:24:20.857Z,9.90
2018-07-27T01:26:48.499Z,8.43
2018-07-27T01:29:16.001Z,9.20
2018-07-27T01:31:43.547Z,15.10
2018-07-27T01:34:11.088Z,8.32
2018-07-27T01:36:38.534Z,15.50
2018-07-27T01:39:06.008Z,8.88
2018-07-27T01:41:33.455Z,14.48
2018-07-27T01:44:00.946Z,8.10
2018-07-27T01:46:28.468Z,9.27
2018-07-27T01:48:55.942Z,6.90
2018-07-27T01:51:23.384Z,8.55
2018-07-27T01:53:50.904Z,6.87
2018-07-27T01:56:18.361Z,8.48
2018-07-27T01:58:45.948Z,48.67
2018-07-27T02:01:13.456Z,39.15
2018-07-27T02:03:40.983Z,5.90
2018-07-27T02:06:08.421Z,10.13
2018-07-27T02:08:35.841Z,6.47
2018-07-27T02:11:03.324Z,7.07
2018-07-27T02:13:30.822Z,10.20
2018-07-27T02:15:58.300Z,8.25
2018-07-27T02:18:25.770Z,5.95
2018-07-27T02:20:53.254Z,7.20
2018-07-27T02:23:20.678Z,6.93
2018-07-27T02:25:48.154Z,6.57
2018-07-27T02:28:15.768Z,5.70
2018-07-27T02:30:43.422Z,11.60
2018-07-27T02:33:10.924Z,9.65
2018-07-27T02:35:38.433Z,13.35
2018-07-27T02:38:05.873Z,8.48
2018-07-27T02:40:33.320Z,8.30
2018-07-27T02:43:00.816Z,51.78
2018-07-27T02:45:28.304Z,10.38
2018-07-27T02:47:55.781Z,7.53
2018-07-27T02:50:23.231Z,56.28
2018-07-27T02:52:50.737Z,70.03
2018-07-27T02:55:18.211Z,8.90
2018-07-27T02:57:45.701Z,83.05
2018-07-27T03:00:13.137Z,77.80
2018-07-27T03:02:40.549Z,78.35
2018-07-27T03:05:07.994Z,77.75
2018-07-27T03:07:35.435Z,77.40
2018-07-27T03:10:02.924Z,77.10
2018-07-27T03:12:30.431Z,80.22
2018-07-27T03:14:57.935Z,78.45
2018-07-27T03:17:25.408Z,77.78
2018-07-27T03:19:52.871Z,72.18
2018-07-27T03:22:20.318Z,75.55
2018-07-27T03:24:47.757Z,75.45
2018-07-27T03:27:15.244Z,73.93
2018-07-27T03:29:43.850Z,71.05
2018-07-27T03:32:11.305Z,72.18
2018-07-27T03:34:38.783Z,77.85
2018-07-27T03:37:06.251Z,74.60
2018-07-27T03:39:33.742Z,75.20
2018-07-27T03:42:01.208Z,73.93
2018-07-27T03:44:28.622Z,75.93
2018-07-27T03:46:56.081Z,72.07
2018-07-27T03:49:23.550Z,73.12
2018-07-27T03:51:50.982Z,72.35
2018-07-27T03:54:18.476Z,70.25
2018-07-27T03:56:45.965Z,74.35
2018-07-27T03:59:13.468Z,68.40
2018-07-27T04:01:40.917Z,70.25
2018-07-27T04:04:08.375Z,70.95
2018-07-27T04:06:35.910Z,71.22
2018-07-27T04:09:03.408Z,253.60
2018-07-27T04:11:30.899Z,68.15
2018-07-27T04:13:58.462Z,70.40
2018-07-27T04:16:25.922Z,68.78
2018-07-27T04:18:53.388Z,70.10
2018-07-27T04:21:20.845Z,69.40
2018-07-27T04:23:48.323Z,71.78
2018-07-27T04:26:15.824Z,70.12
2018-07-27T04:28:43.223Z,72.87
2018-07-27T04:31:10.754Z,72.82
2018-07-27T04:33:38.475Z,71.80
2018-07-27T04:36:05.883Z,73.62
2018-07-27T04:38:33.339Z,75.12
2018-07-27T04:41:00.815Z,69.60
2018-07-27T04:43:28.331Z,72.90
2018-07-27T04:45:55.779Z,66.50
2018-07-27T04:48:23.414Z,64.25
2018-07-27T04:50:50.895Z,60.97
2018-07-27T04:53:18.343Z,63.83
2018-07-27T04:55:45.779Z,62.10
2018-07-27T04:58:13.298Z,64.00
2018-07-27T05:00:40.740Z,252.75
2018-07-27T05:03:08.236Z,64.28
2018-07-27T05:05:35.662Z,65.60
2018-07-27T05:08:03.199Z,66.95
2018-07-27T05:10:30.831Z,62.65
2018-07-27T05:12:59.198Z,72.10
2018-07-27T05:15:27.159Z,65.50
2018-07-27T05:17:54.592Z,67.80
2018-07-27T05:20:22.088Z,67.97
2018-07-27T05:22:49.613Z,68.57
2018-07-27T05:25:17.117Z,69.80
2018-07-27T05:27:44.603Z,67.70
2018-07-27T05:30:12.083Z,74.95
2018-07-27T05:32:39.556Z,69.80
2018-07-27T05:35:07.064Z,73.28
2018-07-27T05:37:34.485Z,74.25
2018-07-27T05:40:02.097Z,74.97
2018-07-27T05:42:29.541Z,75.80
2018-07-27T05:44:57.072Z,76.70
2018-07-27T05:47:24.510Z,76.78
2018-07-27T05:49:51.967Z,76.78
2018-07-27T05:52:19.389Z,76.30
2018-07-27T05:54:46.835Z,77.15
2018-07-27T05:57:14.239Z,85.53
2018-07-27T05:59:41.670Z,75.07
2018-07-27T06:02:10.437Z,76.62
2018-07-27T06:04:36.549Z,76.93
2018-07-27T06:07:04.175Z,81.30
2018-07-27T06:09:31.630Z,74.87
2018-07-27T06:11:59.051Z,78.55
2018-07-27T06:14:26.546Z,84.37
2018-07-27T06:16:54.036Z,82.85
2018-07-27T06:19:21.484Z,76.35
2018-07-27T06:21:48.960Z,77.05
2018-07-27T06:24:16.564Z,79.32
2018-07-27T06:26:43.899Z,82.15
2018-07-27T06:29:11.584Z,77.90
2018-07-27T06:31:39.035Z,78.62
2018-07-27T06:34:06.623Z,79.65
2018-07-27T06:36:34.099Z,82.03
2018-07-27T06:39:01.599Z,74.03
2018-07-27T06:41:29.002Z,76.70
2018-07-27T06:43:56.445Z,78.82
2018-07-27T06:46:23.880Z,81.65
2018-07-27T06:48:51.423Z,10.75
2018-07-27T06:51:19.129Z,13.02
2018-07-27T06:53:46.700Z,10.32
2018-07-27T06:56:14.147Z,11.12
2018-07-27T06:58:41.645Z,10.27
2018-07-27T07:01:09.164Z,10.55
2018-07-27T07:03:36.621Z,10.13
2018-07-27T07:06:04.080Z,11.93
2018-07-27T07:08:31.544Z,12.32
2018-07-27T07:10:59.042Z,15.70
2018-07-27T07:13:26.484Z,13.65
2018-07-27T07:15:53.997Z,12.70
2018-07-27T07:18:21.590Z,14.65
2018-07-27T07:20:49.110Z,10.77
2018-07-27T07:23:16.601Z,13.48
2018-07-27T07:25:44.206Z,12.50
2018-07-27T07:28:11.569Z,14.07
2018-07-27T07:30:38.983Z,12.37
2018-07-27T07:33:06.477Z,21.17
2018-07-27T07:35:34.056Z,13.65
2018-07-27T07:38:01.544Z,11.02
2018-07-27T07:40:29.843Z,13.88
2018-07-27T07:42:57.457Z,13.32
2018-07-27T07:45:24.953Z,17.35
2018-07-27T07:47:52.497Z,20.12
2018-07-27T07:50:19.952Z,12.57
2018-07-27T07:52:47.525Z,14.35
2018-07-27T07:55:15.351Z,66.30
2018-07-27T07:57:42.795Z,12.13
2018-07-27T08:00:10.271Z,13.05
2018-07-27T08:02:37.864Z,14.33
2018-07-27T08:05:05.290Z,15.90
2018-07-27T08:07:32.824Z,13.00
2018-07-27T08:10:00.438Z,12.90
2018-07-27T08:12:27.941Z,17.37
2018-07-27T08:14:55.361Z,13.70
2018-07-27T08:17:22.899Z,13.77
2018-07-27T08:19:50.436Z,22.70
2018-07-27T08:22:17.894Z,12.45
2018-07-27T08:24:45.463Z,14.70
2018-07-27T08:27:12.996Z,14.15
2018-07-27T08:29:40.611Z,13.60
2018-07-27T08:32:08.349Z,13.62
2018-07-27T08:34:35.808Z,11.68
2018-07-27T08:37:03.257Z,12.95
2018-07-27T08:39:30.744Z,12.27
2018-07-27T08:41:58.233Z,22.98
2018-07-27T08:44:25.773Z,20.88
2018-07-27T08:46:53.247Z,15.70
2018-07-27T08:49:20.707Z,57.13
2018-07-27T08:51:48.219Z,21.70
2018-07-27T08:54:15.707Z,16.20
2018-07-27T08:56:43.185Z,17.75
2018-07-27T08:59:10.727Z,15.48
2018-07-27T09:01:38.234Z,13.35
2018-07-27T09:04:05.919Z,13.10
2018-07-27T09:36:15.917Z,12.73
2018-07-27T09:38:43.505Z,9.52
2018-07-27T09:41:10.939Z,10.93
2018-07-27T10:15:30.392Z,15.43
2018-07-27T10:17:57.832Z,13.20
2018-07-27T10:20:25.449Z,14.80
2018-07-27T11:02:05.722Z,17.35
2018-07-27T11:14:21.528Z,12.95
2018-07-27T11:16:49.070Z,14.65
2018-07-27T11:19:16.505Z,16.62
2018-07-27T11:21:43.981Z,13.75
2018-07-27T11:24:11.454Z,13.70
2018-07-27T11:26:38.964Z,25.05
2018-07-27T11:38:54.690Z,94.80
2018-07-27T11:56:04.192Z,13.32
2018-07-27T12:08:19.782Z,14.27
2018-07-27T12:10:47.280Z,12.75
2018-07-27T12:13:14.750Z,9.70
2018-07-27T12:15:42.633Z,13.18
2018-07-27T12:18:10.133Z,12.37
2018-07-27T12:23:04.852Z,15.23
2018-07-27T12:25:32.328Z,18.95
2018-07-27T12:30:26.897Z,15.23
2018-07-27T12:32:55.047Z,18.35
2018-07-27T12:35:22.525Z,15.82
2018-07-27T12:37:50.004Z,14.55
2018-07-27T12:40:17.481Z,12.15
2018-07-27T12:42:44.984Z,13.90
2018-07-27T12:47:39.605Z,17.02
2018-07-27T12:50:07.110Z,15.15
2018-07-27T12:52:34.638Z,17.35
2018-07-27T12:55:02.127Z,14.63
2018-07-27T12:57:29.603Z,13.55
2018-07-27T13:02:24.092Z,17.08
2018-07-27T13:04:51.513Z,20.08
2018-07-27T13:07:19.018Z,22.10
2018-07-27T13:09:46.475Z,17.42
2018-07-27T13:26:56.775Z,17.70
2018-07-27T13:29:24.236Z,20.42
2018-07-27T13:31:51.655Z,16.52
2018-07-27T13:34:19.147Z,19.73
2018-07-27T13:36:46.563Z,21.52
2018-07-27T13:39:14.103Z,21.60
2018-07-27T13:41:41.557Z,20.62
2018-07-27T13:44:09.013Z,19.27
2018-07-27T13:46:36.477Z,17.55
2018-07-27T13:49:03.979Z,24.02
2018-07-27T13:51:31.489Z,15.40
2018-07-27T13:53:58.989Z,19.80
2018-07-27T13:56:26.489Z,16.20
2018-07-27T13:58:54.020Z,19.35
2018-07-27T14:01:21.435Z,20.48
2018-07-27T14:03:48.896Z,19.33
2018-07-27T14:06:16.398Z,18.45
2018-07-27T14:08:43.887Z,18.85
2018-07-27T14:11:11.378Z,24.23
2018-07-27T14:13:38.829Z,21.43
2018-07-27T14:16:06.339Z,20.13
2018-07-27T14:18:33.812Z,22.77
2018-07-27T14:21:01.504Z,30.50
2018-07-27T14:25:56.000Z,21.50
2018-07-27T14:28:23.491Z,18.58
2018-07-27T14:30:50.915Z,18.98
2018-07-27T14:33:18.437Z,11.90
2018-07-27T14:35:45.888Z,14.50
2018-07-27T14:38:13.425Z,15.57
2018-07-27T14:40:40.862Z,23.87
2018-07-27T14:43:08.359Z,16.92
2018-07-27T14:45:35.762Z,18.40
2018-07-27T14:48:03.305Z,19.77
2018-07-27T14:50:30.783Z,19.15
2018-07-27T14:52:58.226Z,19.15
2018-07-27T14:55:25.732Z,15.63
2018-07-27T14:57:53.191Z,34.30
2018-07-27T15:00:20.655Z,22.23
2018-07-27T15:02:48.324Z,24.08
2018-07-27T15:05:15.823Z,20.98
2018-07-27T15:07:43.311Z,19.42
2018-07-27T15:10:10.943Z,14.05
2018-07-27T15:12:38.422Z,25.60
2018-07-27T15:15:06.011Z,23.38
2018-07-27T15:17:33.496Z,22.83
2018-07-27T15:20:00.964Z,19.98
2018-07-27T15:22:28.465Z,21.05
2018-07-27T15:24:56.019Z,15.90
2018-07-27T15:27:23.476Z,14.68
2018-07-27T15:29:50.967Z,16.30
2018-07-27T15:32:18.641Z,20.55
2018-07-27T15:34:46.145Z,16.08
2018-07-27T15:37:13.774Z,16.75
2018-07-27T15:39:41.245Z,17.52
2018-07-27T15:42:08.742Z,19.55
2018-07-27T15:44:36.191Z,18.77
2018-07-27T15:47:03.686Z,17.12
2018-07-27T15:49:31.223Z,14.73
2018-07-27T15:51:58.745Z,16.55
2018-07-27T15:54:27.641Z,12.20
2018-07-27T15:56:55.199Z,15.23
2018-07-27T15:59:22.684Z,12.07
2018-07-27T16:01:50.142Z,15.43
2018-07-27T16:04:17.930Z,16.48
2018-07-27T16:06:45.597Z,17.83
2018-07-27T16:09:13.081Z,19.35
2018-07-27T16:11:40.998Z,14.25
2018-07-27T16:14:08.466Z,16.25
2018-07-27T16:16:35.941Z,17.40
2018-07-27T16:19:03.485Z,15.85
2018-07-27T16:21:30.976Z,18.65
2018-07-27T16:23:58.445Z,22.60
2018-07-27T16:26:25.953Z,17.52
2018-07-27T16:28:53.528Z,16.80
2018-07-27T16:31:20.983Z,15.10
2018-07-27T16:33:48.412Z,24.35
2018-07-27T16:36:16.323Z,29.52
2018-07-27T16:38:43.736Z,28.50
2018-07-27T16:41:11.248Z,25.20
2018-07-27T16:43:38.739Z,16.73
2018-07-27T16:46:06.251Z,14.95
2018-07-27T16:48:34.454Z,15.32
2018-07-27T16:51:01.887Z,15.23
2018-07-27T16:53:29.365Z,18.98
2018-07-27T16:55:56.916Z,24.65
2018-07-27T16:58:24.434Z,20.65
2018-07-27T17:00:51.877Z,15.80
2018-07-27T17:03:19.509Z,18.65
2018-07-27T17:05:47.082Z,15.75
2018-07-27T17:08:14.659Z,14.77
2018-07-27T17:10:42.164Z,21.98
2018-07-27T17:13:09.746Z,12.60
2018-07-27T17:15:37.263Z,13.90
2018-07-27T17:18:04.718Z,11.68
2018-07-27T17:20:32.190Z,14.45
2018-07-27T17:22:59.722Z,16.52
2018-07-27T17:25:27.347Z,13.45
2018-07-27T17:27:54.792Z,17.05
2018-07-27T17:30:22.289Z,14.00
2018-07-27T17:32:49.800Z,15.98
2018-07-27T17:35:17.230Z,11.00
2018-07-27T17:37:44.804Z,13.00
2018-07-27T17:40:12.304Z,12.70
2018-07-27T17:42:39.991Z,11.95
2018-07-27T17:45:07.393Z,11.63
2018-07-27T17:47:34.857Z,11.40
2018-07-27T17:50:02.296Z,12.10
2018-07-27T17:52:29.766Z,14.90
2018-07-27T17:54:57.285Z,13.40
2018-07-27T17:57:24.687Z,12.57
2018-07-27T17:59:52.194Z,12.35
2018-07-27T18:02:19.625Z,12.43
2018-07-27T18:04:47.319Z,11.40
2018-07-27T18:07:14.938Z,10.18
2018-07-27T18:09:42.498Z,10.85
2018-07-27T18:12:10.142Z,11.23
2018-07-27T18:14:37.631Z,11.45
2018-07-27T18:17:05.083Z,10.95
2018-07-27T18:19:32.676Z,13.27
2018-07-27T18:22:00.208Z,12.18
2018-07-27T18:24:27.714Z,12.07
2018-07-27T18:26:55.168Z,10.15
2018-07-27T18:29:22.750Z,11.10
2018-07-27T18:31:50.203Z,12.00
2018-07-27T18:34:17.653Z,8.80
2018-07-27T18:36:45.122Z,10.38
2018-07-27T18:39:12.637Z,11.95
2018-07-27T18:41:40.060Z,12.30
2018-07-27T18:44:07.531Z,18.45
2018-07-27T18:46:34.980Z,10.93
2018-07-27T18:49:02.446Z,10.88
2018-07-27T18:51:29.971Z,9.85
2018-07-27T18:53:57.508Z,14.13
2018-07-27T18:56:24.971Z,10.13
2018-07-27T18:58:52.469Z,10.90
2018-07-27T19:01:19.934Z,11.45
2018-07-27T19:03:47.367Z,9.38
2018-07-27T19:06:14.920Z,10.27
2018-07-27T19:08:42.386Z,11.73
2018-07-27T19:11:09.920Z,7.95
2018-07-27T19:13:37.490Z,13.13
2018-07-27T19:16:05.038Z,12.35
2018-07-27T19:18:32.541Z,10.70
2018-07-27T19:20:59.990Z,12.45
2018-07-27T19:23:27.532Z,9.95
2018-07-27T19:25:54.907Z,12.07
2018-07-27T19:28:22.327Z,12.55
2018-07-27T19:30:49.931Z,15.88
2018-07-27T19:33:17.350Z,16.05
2018-07-27T19:35:44.816Z,23.42
2018-07-27T19:38:12.338Z,20.83
2018-07-27T19:40:39.771Z,19.27
2018-07-27T19:43:07.164Z,27.37
2018-07-27T19:45:34.808Z,24.27
2018-07-27T19:48:02.339Z,24.42
2018-07-27T19:50:29.761Z,32.03
2018-07-27T19:52:57.225Z,35.47
2018-07-27T19:55:24.650Z,28.42
2018-07-27T19:57:52.133Z,21.80
2018-07-27T20:00:19.577Z,19.67
2018-07-27T20:02:47.019Z,17.98
2018-07-27T20:05:14.507Z,27.48
2018-07-27T20:07:42.173Z,30.58
2018-07-27T20:10:09.827Z,19.62
2018-07-27T20:12:37.299Z,18.52
2018-07-27T20:15:04.711Z,20.23
2018-07-27T20:17:32.198Z,23.02
2018-07-27T20:19:59.882Z,15.48
2018-07-27T20:22:27.351Z,21.83
2018-07-27T20:24:54.933Z,24.25
2018-07-27T20:27:22.438Z,17.83
2018-07-27T20:29:49.929Z,14.87
2018-07-27T20:32:17.420Z,19.02
2018-07-27T20:34:45.050Z,14.70
2018-07-27T20:37:12.703Z,14.38
2018-07-27T20:39:40.456Z,18.25
2018-07-27T20:42:07.881Z,20.92
2018-07-27T20:44:35.363Z,21.15
2018-07-27T20:47:02.798Z,16.67
2018-07-27T20:49:30.244Z,13.98
2018-07-27T20:51:57.670Z,17.20
2018-07-27T20:54:25.217Z,18.48
2018-07-27T20:56:52.671Z,16.33
2018-07-27T20:59:20.168Z,17.77
2018-07-27T21:01:47.610Z,19.30
2018-07-27T21:04:15.203Z,14.52
2018-07-27T21:06:42.748Z,12.75
2018-07-27T21:09:10.237Z,18.92
2018-07-27T21:11:37.780Z,15.70
2018-07-27T21:14:05.297Z,22.33
2018-07-27T21:16:32.796Z,18.00
2018-07-27T21:19:00.227Z,16.37
2018-07-27T21:21:27.720Z,16.85
2018-07-27T21:23:55.257Z,12.60
2018-07-27T21:26:22.955Z,14.82
2018-07-27T21:28:50.455Z,17.15
2018-07-27T21:31:17.916Z,16.42
2018-07-27T21:33:45.419Z,16.42
2018-07-27T21:36:12.919Z,19.55
2018-07-27T21:38:40.411Z,19.92
2018-07-27T21:41:07.979Z,21.52
2018-07-27T21:43:35.536Z,15.70
2018-07-27T21:46:03.047Z,17.20
2018-07-27T21:48:30.493Z,17.25
2018-07-27T21:50:57.992Z,16.12
2018-07-27T21:53:25.449Z,16.98
2018-07-27T21:55:53.044Z,14.20
2018-07-27T21:58:20.592Z,14.48
2018-07-27T22:00:48.061Z,12.40
2018-07-27T22:03:15.568Z,13.43
2018-07-27T22:05:43.305Z,13.20
2018-07-27T22:08:10.795Z,11.05
2018-07-27T22:10:38.249Z,14.65
2018-07-27T22:13:05.689Z,11.82
2018-07-27T22:15:33.142Z,10.80
2018-07-27T22:18:00.608Z,12.02
2018-07-27T22:20:28.110Z,30.52
2018-07-27T22:22:55.564Z,11.50
2018-07-27T22:25:23.014Z,11.30
2018-07-27T22:27:50.461Z,29.95
2018-07-27T22:30:18.051Z,38.88
2018-07-27T22:32:45.468Z,10.10
2018-07-27T22:35:13.023Z,12.70
2018-07-27T22:37:40.484Z,11.00
2018-07-27T22:40:07.926Z,9.07
2018-07-27T22:42:35.383Z,10.30
2018-07-27T22:45:02.829Z,15.07
2018-07-27T22:47:30.312Z,27.27
2018-07-27T22:49:57.748Z,9.40
2018-07-27T22:52:25.198Z,10.50
2018-07-27T22:54:52.602Z,16.05
2018-07-27T22:57:20.049Z,16.02
2018-07-27T22:59:47.610Z,11.52
2018-07-27T23:02:15.091Z,16.67
2018-07-27T23:04:42.552Z,9.52
2018-07-27T23:07:10.909Z,12.15
2018-07-27T23:09:38.426Z,9.70
2018-07-27T23:12:05.968Z,18.50
2018-07-27T23:14:33.435Z,9.90
2018-07-27T23:17:00.982Z,14.65
2018-07-27T23:19:28.584Z,10.23
2018-07-27T23:21:56.025Z,12.23
2018-07-27T23:24:23.474Z,12.88
2018-07-27T23:26:50.894Z,9.32
2018-07-27T23:29:18.328Z,13.43
2018-07-27T23:31:45.826Z,10.82
2018-07-27T23:34:13.344Z,11.10
2018-07-27T23:36:40.783Z,9.57
2018-07-27T23:39:08.248Z,9.77
2018-07-27T23:41:35.678Z,11.35
2018-07-27T23:44:03.187Z,10.07
2018-07-27T23:46:30.698Z,14.77
2018-07-27T23:48:58.242Z,13.55
2018-07-27T23:51:26.805Z,11.15
2018-07-27T23:53:54.270Z,21.05
2018-07-27T23:56:21.702Z,10.35
2018-07-27T23:58:49.156Z,10.02
